Current Conditions
Clear
Conditions



Pressure
1014.56 (hPa) - 29.96 (inHG)
Visibility

10.0 (miles) - 16.1 (km)
   Temperature
93  °F
Temperature
70  °F
Dewpoint
47  %
 Humidity
   Wind Speed
0  mph
0  kts
0  km/h
0  m/s
   Wind Direction
N
45°
E
90°
135°
S
180°
225°
W
270°
315°
Calm

Due North
   Airport Data
KYIP
Willow Run Airport
Metar :KYIP 172253Z AUTO 00000KT 10SM CLR 34/21 A2996 RMK AO2 LTG DSNT S SLP136 T03390206
Mon 17th June 18:53 pm
   Raw Metar Info
Raw METAR is the most common format in the world for the transmission of observational weather data. It is highly standardized through the International Civil Aviation Organization (ICAO), which allows it to be understood throughout most of the world.
   API Info
Data Provided by
https://www.checkwx.com/weather/KYIP

Aviation Weather providing METAR, TAF, AIRMET, SIGMET and OUTLOOK Weather Reports
   © Info
CSS/SVG/PHP scripts were developed by weather34.com for use in the weather34 template © 2015-2024

Guide Info provided by Metar-Wikipedia